Time;durP1;ratioP1;P1;durP2;ratioP2;P2;SDS_P1;SDS_P2;PMS_P1;PMS_P2;Temp;Humidity;BMP_temperature;BMP_pressure;BME280_temperature;BME280_humidity;BME280_pressure;Samples;Min_cycle;Max_cycle;Signal;HPM_P1;HPM_P2
2023/10/15 00:01:52;;;;;;;2.42;1.00;;;23.40;56.80;;;;;;4967002;28;88739;-86
2023/10/15 00:04:17;;;;;;;1.75;1.00;;;23.40;57.40;;;;;;4966999;28;87893;-85
2023/10/15 00:06:43;;;;;;;1.15;0.80;;;23.40;56.80;;;;;;4968310;28;87443;-85
2023/10/15 00:09:09;;;;;;;2.17;1.00;;;23.40;56.80;;;;;;4967512;28;89582;-85
2023/10/15 00:11:35;;;;;;;1.92;1.02;;;23.30;56.60;;;;;;4967207;28;89266;-85
2023/10/15 00:14:03;;;;;;;2.75;0.90;;;23.30;56.60;;;;;;4969182;28;87600;-85
2023/10/15 00:16:29;;;;;;;3.03;1.20;;;23.30;56.70;;;;;;4967958;28;87527;-86
2023/10/15 00:18:55;;;;;;;1.42;1.02;;;23.30;56.80;;;;;;4965203;28;91630;-85
2023/10/15 00:21:33;;;;;;;1.67;1.27;;;23.30;56.80;;;;;;4967759;28;88613;-86
2023/10/15 00:24:01;;;;;;;1.88;1.00;;;23.30;56.80;;;;;;4968371;28;87273;-85
2023/10/15 00:26:27;;;;;;;1.33;1.00;;;23.30;56.80;;;;;;4966653;28;88032;-85
2023/10/15 00:28:54;;;;;;;1.40;0.88;;;23.20;56.90;;;;;;4951525;28;90490;-86
2023/10/15 00:31:20;;;;;;;1.85;0.98;;;23.20;56.80;;;;;;4967754;28;88197;-86
2023/10/15 00:33:48;;;;;;;1.48;1.00;;;23.20;56.80;;;;;;4966682;28;87912;-86
2023/10/15 00:36:14;;;;;;;1.38;0.88;;;23.20;56.90;;;;;;4969031;28;87010;-85
2023/10/15 00:38:44;;;;;;;1.48;0.90;;;23.20;56.90;;;;;;4966889;28;87761;-86
2023/10/15 00:41:13;;;;;;;1.17;0.88;;;23.20;56.90;;;;;;4964625;28;89348;-85
2023/10/15 00:43:52;;;;;;;1.13;0.98;;;23.20;57.00;;;;;;4966818;28;88437;-86
2023/10/15 00:46:18;;;;;;;1.67;0.97;;;23.20;56.90;;;;;;4968209;28;87677;-85
2023/10/15 00:48:56;;;;;;;1.73;0.90;;;23.10;56.90;;;;;;4967030;28;89366;-85
2023/10/15 00:51:22;;;;;;;2.47;1.23;;;23.10;57.00;;;;;;4966638;28;89200;-85
2023/10/15 00:53:54;;;;;;;3.00;0.73;;;23.10;56.80;;;;;;4966938;28;87620;-86
2023/10/15 00:56:25;;;;;;;1.38;0.90;;;23.10;56.90;;;;;;4966767;28;87673;-86
2023/10/15 01:03:50;;;;;;;2.47;1.00;;;23.10;57.00;;;;;;4968286;28;93007;-85
2023/10/15 01:06:30;;;;;;;1.23;0.90;;;23.10;57.10;;;;;;4967766;28;87066;-85
2023/10/15 01:09:17;;;;;;;1.58;0.98;;;23.10;57.40;;;;;;4967036;28;94626;-85
2023/10/15 01:11:44;;;;;;;1.85;1.05;;;23.00;56.90;;;;;;4967258;28;87966;-85
2023/10/15 01:14:11;;;;;;;1.65;1.00;;;23.00;56.90;;;;;;4969421;28;87445;-86
2023/10/15 01:16:38;;;;;;;2.40;1.15;;;23.00;56.80;;;;;;4967658;28;87853;-85
2023/10/15 01:21:53;;;;;;;1.25;0.90;;;23.00;57.20;;;;;;4978149;28;87829;-86
2023/10/15 01:24:26;;;;;;;1.52;0.90;;;23.00;56.90;;;;;;4968288;28;87536;-86
2023/10/15 01:27:12;;;;;;;2.20;0.80;;;23.00;57.00;;;;;;4967437;28;91003;-86
2023/10/15 01:29:48;;;;;;;1.00;0.82;;;23.00;56.90;;;;;;4965897;28;89765;-85
2023/10/15 01:32:18;;;;;;;1.52;1.00;;;23.00;57.10;;;;;;4966313;28;87894;-85
2023/10/15 01:34:45;;;;;;;2.25;0.70;;;23.00;57.10;;;;;;4965737;28;93862;-85
2023/10/15 01:39:51;;;;;;;1.35;1.00;;;22.90;57.30;;;;;;4967857;28;87697;-87
2023/10/15 01:44:54;;;;;;;1.65;0.98;;;22.90;57.10;;;;;;4966931;28;87572;-86
2023/10/15 01:47:27;;;;;;;2.58;0.98;;;22.90;57.10;;;;;;4966398;28;87856;-85
2023/10/15 01:49:56;;;;;;;2.70;0.98;;;22.90;57.20;;;;;;4965932;28;90555;-86
2023/10/15 01:52:30;;;;;;;1.17;0.80;;;22.90;57.10;;;;;;4967180;28;87157;-86
2023/10/15 01:55:02;;;;;;;1.40;0.90;;;22.90;57.10;;;;;;4966499;28;87530;-86
2023/10/15 01:57:28;;;;;;;1.30;1.10;;;22.90;57.10;;;;;;4965049;28;87497;-86
2023/10/15 02:00:05;;;;;;;0.98;0.77;;;22.90;57.10;;;;;;4966390;28;88730;-85
2023/10/15 02:02:32;;;;;;;1.13;1.00;;;22.90;57.20;;;;;;4966467;28;88419;-86
2023/10/15 02:04:58;;;;;;;1.10;0.80;;;22.80;57.20;;;;;;4965187;28;87260;-86
2023/10/15 02:07:24;;;;;;;1.73;1.00;;;22.90;57.20;;;;;;4966457;28;94538;-86
2023/10/15 02:09:53;;;;;;;1.20;0.80;;;22.90;57.20;;;;;;4964903;28;87749;-85
2023/10/15 02:12:19;;;;;;;1.58;1.00;;;22.80;57.20;;;;;;4964585;28;88139;-85
2023/10/15 02:14:48;;;;;;;1.38;0.90;;;22.80;57.30;;;;;;4964469;28;87727;-85
2023/10/15 02:17:18;;;;;;;1.27;0.93;;;22.80;57.20;;;;;;4965887;28;89377;-86
2023/10/15 02:19:44;;;;;;;2.33;1.55;;;22.80;57.20;;;;;;4965553;28;87875;-84
2023/10/15 02:22:14;;;;;;;2.58;0.88;;;22.80;57.20;;;;;;4966562;28;87584;-85
2023/10/15 02:24:47;;;;;;;1.38;0.90;;;22.80;57.40;;;;;;4967021;28;88674;-85
2023/10/15 02:27:24;;;;;;;1.20;1.08;;;22.80;57.30;;;;;;4965933;28;89951;-85
2023/10/15 02:29:51;;;;;;;2.00;0.80;;;22.80;57.20;;;;;;4966795;28;92458;-85
2023/10/15 02:34:50;;;;;;;1.23;0.82;;;22.70;57.20;;;;;;4965542;28;87862;-86
2023/10/15 02:37:17;;;;;;;1.48;0.90;;;22.70;57.20;;;;;;4965325;28;87462;-85
2023/10/15 02:39:52;;;;;;;1.40;1.00;;;22.70;57.30;;;;;;4966488;28;88154;-86
2023/10/15 02:42:31;;;;;;;1.25;0.77;;;22.80;57.30;;;;;;4966200;28;88303;-86
2023/10/15 02:44:58;;;;;;;;;;;22.80;57.20;;;;;;4966748;28;88474;-85
2023/10/15 02:47:29;;;;;;;1.85;1.13;;;22.70;57.20;;;;;;4968542;28;87519;-85
2023/10/15 02:50:04;;;;;;;1.90;1.08;;;22.70;57.20;;;;;;4966087;28;89041;-86
2023/10/15 02:52:43;;;;;;;1.38;0.90;;;22.70;57.30;;;;;;4971784;28;90612;-85
2023/10/15 02:55:10;;;;;;;0.73;0.63;;;22.70;57.20;;;;;;4968874;28;87607;-85
2023/10/15 02:57:40;;;;;;;1.20;0.77;;;22.70;57.20;;;;;;4968198;28;88325;-86
2023/10/15 03:00:41;;;;;;;;;;;22.70;57.20;;;;;;4970935;28;87064;-85
2023/10/15 03:03:07;;;;;;;1.35;0.80;;;22.70;57.30;;;;;;4973720;28;91748;-86
2023/10/15 03:05:38;;;;;;;1.95;0.93;;;22.70;57.30;;;;;;4970055;28;87834;-85
2023/10/15 03:08:05;;;;;;;1.42;1.15;;;22.70;57.20;;;;;;4970902;28;86846;-84
2023/10/15 03:10:44;;;;;;;2.53;1.30;;;22.70;57.30;;;;;;4968735;28;90187;-85
2023/10/15 03:13:14;;;;;;;0.90;0.70;;;22.60;57.20;;;;;;4970183;28;88345;-85
2023/10/15 03:15:48;;;;;;;1.10;0.70;;;22.60;57.20;;;;;;4969162;28;88312;-85
2023/10/15 03:18:15;;;;;;;0.70;0.70;;;22.60;57.10;;;;;;4969994;28;87629;-87
2023/10/15 03:20:48;;;;;;;1.25;0.85;;;22.60;57.20;;;;;;4968177;28;89333;-86
2023/10/15 03:23:16;;;;;;;0.88;0.73;;;22.60;57.20;;;;;;4969511;28;94928;-85
2023/10/15 03:25:42;;;;;;;2.78;1.10;;;22.60;57.20;;;;;;4969057;28;87396;-86
2023/10/15 03:28:11;;;;;;;1.05;0.88;;;22.60;57.20;;;;;;4969248;28;87229;-84
2023/10/15 03:30:44;;;;;;;1.70;0.65;;;22.60;57.30;;;;;;4965844;28;90734;-85
2023/10/15 03:33:11;;;;;;;1.80;0.93;;;22.60;57.20;;;;;;4969334;28;87938;-85
2023/10/15 03:35:39;;;;;;;1.92;1.10;;;22.60;57.30;;;;;;4966755;28;87007;-86
2023/10/15 03:38:08;;;;;;;2.80;1.05;;;22.60;57.30;;;;;;4968188;28;87939;-86
2023/10/15 03:40:46;;;;;;;0.88;0.60;;;22.60;57.30;;;;;;4967031;28;88854;-85
2023/10/15 03:43:23;;;;;;;1.50;0.88;;;22.60;57.20;;;;;;4968760;28;91497;-86
2023/10/15 03:45:51;;;;;;;1.38;0.68;;;22.60;57.30;;;;;;4968013;28;87114;-85
2023/10/15 03:48:22;;;;;;;1.90;1.00;;;22.50;57.10;;;;;;4968820;28;87883;-84
2023/10/15 03:50:53;;;;;;;1.45;0.80;;;22.60;57.30;;;;;;4968411;28;90894;-86
2023/10/15 03:53:27;;;;;;;0.85;0.70;;;22.60;57.20;;;;;;4968967;28;87663;-86
2023/10/15 03:56:04;;;;;;;1.02;0.70;;;22.60;57.20;;;;;;4969143;28;87674;-86
2023/10/15 03:58:33;;;;;;;1.92;0.85;;;22.50;57.10;;;;;;4967223;28;87865;-85
2023/10/15 04:01:15;;;;;;;;;;;22.50;57.10;;;;;;4968854;28;87554;-86
2023/10/15 04:03:47;;;;;;;1.25;0.90;;;22.50;57.10;;;;;;4968249;28;87867;-85
2023/10/15 04:06:17;;;;;;;1.13;0.75;;;22.50;57.30;;;;;;4968432;28;88635;-84
2023/10/15 04:11:55;;;;;;;;;;;;;;;;;;;;;
2023/10/15 04:16:46;;;;;;;0.65;0.60;;;22.50;57.30;;;;;;4968979;28;88175;-85
2023/10/15 04:19:17;;;;;;;1.10;0.75;;;22.50;57.30;;;;;;4974622;28;87506;-85
2023/10/15 04:21:43;;;;;;;1.98;0.98;;;22.50;57.50;;;;;;4966164;28;87773;-84
2023/10/15 04:24:09;;;;;;;1.63;0.82;;;22.50;57.40;;;;;;4967563;28;87205;-87
2023/10/15 04:26:36;;;;;;;0.80;0.80;;;22.40;57.30;;;;;;4967223;28;87019;-85
2023/10/15 04:29:16;;;;;;;1.02;0.60;;;22.40;57.40;;;;;;4967950;28;87706;-84
2023/10/15 04:31:45;;;;;;;1.38;1.00;;;22.50;57.50;;;;;;4967279;28;88451;-85
2023/10/15 04:34:17;;;;;;;1.08;0.90;;;22.50;57.40;;;;;;4966471;28;89033;-87
2023/10/15 04:36:54;;;;;;;1.48;0.80;;;22.40;57.30;;;;;;4965987;28;87707;-85
2023/10/15 04:39:22;;;;;;;0.60;0.60;;;22.40;57.40;;;;;;4969666;28;87472;-85
2023/10/15 04:41:49;;;;;;;1.38;0.90;;;22.40;57.30;;;;;;4966632;28;90719;-85
2023/10/15 04:44:31;;;;;;;0.63;0.63;;;22.40;57.50;;;;;;4967217;28;87537;-85
2023/10/15 04:47:04;;;;;;;1.30;0.60;;;22.40;57.50;;;;;;4968716;28;87601;-86
2023/10/15 04:49:33;;;;;;;1.40;0.93;;;22.40;57.40;;;;;;4965777;28;89232;-85
2023/10/15 04:51:59;;;;;;;1.60;1.02;;;22.40;57.50;;;;;;4964204;28;90694;-85
2023/10/15 04:54:25;;;;;;;1.98;0.93;;;22.40;57.40;;;;;;4966703;28;90280;-85
2023/10/15 04:56:54;;;;;;;1.10;0.80;;;22.40;57.30;;;;;;4967071;28;88673;-85
2023/10/15 04:59:22;;;;;;;1.30;0.80;;;22.40;57.40;;;;;;4966316;28;90371;-85
2023/10/15 05:01:50;;;;;;;0.95;0.80;;;22.40;57.50;;;;;;4964799;28;89072;-85
2023/10/15 05:04:16;;;;;;;1.10;0.75;;;22.40;57.30;;;;;;4965093;28;90016;-85
2023/10/15 05:06:42;;;;;;;1.05;0.70;;;22.40;57.40;;;;;;4966497;28;87020;-86
2023/10/15 05:09:09;;;;;;;1.60;0.75;;;22.40;57.40;;;;;;4968275;28;87682;-84
2023/10/15 05:11:35;;;;;;;0.60;0.52;;;22.40;57.50;;;;;;4966299;28;87844;-87
2023/10/15 05:14:00;;;;;;;1.30;0.70;;;22.40;57.30;;;;;;4968203;28;87486;-85
2023/10/15 05:16:26;;;;;;;1.15;0.80;;;22.40;57.40;;;;;;4966566;28;87641;-86
2023/10/15 05:18:52;;;;;;;0.57;0.57;;;22.40;57.40;;;;;;4965981;28;89684;-85
2023/10/15 05:21:17;;;;;;;1.48;0.80;;;22.40;57.20;;;;;;4968413;28;89893;-85
2023/10/15 05:23:44;;;;;;;0.75;0.60;;;22.30;57.20;;;;;;4965513;28;88715;-85
2023/10/15 05:26:10;;;;;;;0.80;0.60;;;22.30;57.30;;;;;;4966682;28;87452;-85
2023/10/15 05:28:35;;;;;;;0.68;0.65;;;22.40;57.30;;;;;;4965892;28;88082;-85
2023/10/15 05:31:01;;;;;;;0.80;0.70;;;22.30;57.40;;;;;;4960398;28;87777;-86
2023/10/15 05:33:28;;;;;;;0.90;0.60;;;22.30;57.40;;;;;;4975714;28;87764;-85
2023/10/15 05:35:56;;;;;;;1.17;0.70;;;22.30;57.40;;;;;;4966261;28;87846;-85
2023/10/15 05:38:22;;;;;;;1.27;0.70;;;22.30;57.30;;;;;;4964697;28;89201;-85
2023/10/15 05:40:57;;;;;;;0.82;0.63;;;22.30;57.10;;;;;;4965528;28;87250;-85
2023/10/15 05:43:30;;;;;;;3.97;0.95;;;22.30;57.30;;;;;;4966305;28;90295;-85
2023/10/15 05:45:55;;;;;;;0.80;0.63;;;22.30;57.10;;;;;;4964057;28;88274;-85
2023/10/15 05:48:21;;;;;;;1.10;0.65;;;22.30;57.30;;;;;;4966290;28;87602;-85
2023/10/15 05:50:50;;;;;;;1.30;1.10;;;22.30;57.20;;;;;;4967511;28;88386;-85
2023/10/15 05:53:16;;;;;;;1.33;0.90;;;22.30;57.90;;;;;;4963565;28;90217;-84
2023/10/15 05:55:43;;;;;;;0.90;0.73;;;22.30;57.20;;;;;;4964481;28;87551;-85
2023/10/15 05:58:08;;;;;;;0.95;0.75;;;22.20;57.20;;;;;;4966540;28;87641;-86
2023/10/15 06:00:41;;;;;;;1.38;0.63;;;22.20;57.30;;;;;;4966537;28;88306;-85
2023/10/15 06:03:10;;;;;;;1.10;0.90;;;22.30;57.30;;;;;;4967495;28;88632;-86
2023/10/15 06:05:36;;;;;;;1.40;0.80;;;22.30;57.30;;;;;;4967681;28;87224;-87
2023/10/15 06:08:04;;;;;;;1.83;0.70;;;22.30;57.20;;;;;;4965799;28;89482;-84
2023/10/15 06:10:30;;;;;;;1.23;0.90;;;22.30;56.70;;;;;;4962261;28;90275;-85
2023/10/15 06:12:56;;;;;;;1.95;0.88;;;22.20;56.70;;;;;;4965241;28;88970;-85
2023/10/15 06:15:22;;;;;;;1.40;0.80;;;22.30;56.10;;;;;;4966949;28;87954;-84
2023/10/15 06:17:47;;;;;;;2.20;0.98;;;22.30;56.80;;;;;;4965989;28;87637;-85
2023/10/15 06:20:30;;;;;;;2.90;1.02;;;22.30;55.50;;;;;;4967292;28;87874;-84
2023/10/15 06:22:56;;;;;;;3.63;1.35;;;22.30;56.00;;;;;;4964770;28;90842;-87
2023/10/15 06:25:24;;;;;;;3.60;1.45;;;22.30;56.20;;;;;;4969794;28;87319;-88
2023/10/15 06:27:50;;;;;;;1.60;0.65;;;22.30;57.00;;;;;;4960354;28;89207;-86
2023/10/15 06:30:16;;;;;;;3.40;1.20;;;22.30;56.90;;;;;;4969637;28;90608;-88
2023/10/15 06:32:49;;;;;;;2.63;0.98;;;22.20;57.30;;;;;;4969850;28;89894;-88
2023/10/15 06:35:18;;;;;;;3.80;1.20;;;22.30;57.70;;;;;;4961603;28;88367;-88
2023/10/15 06:37:48;;;;;;;2.42;1.17;;;22.30;57.70;;;;;;4984499;28;94564;-87
2023/10/15 06:40:15;;;;;;;4.82;1.33;;;22.30;57.70;;;;;;4967165;28;87911;-86
2023/10/15 06:42:42;;;;;;;1.98;1.00;;;22.30;57.50;;;;;;4970719;28;89236;-88
2023/10/15 06:45:19;;;;;;;3.45;1.20;;;22.30;57.60;;;;;;4987450;28;87275;-88
2023/10/15 06:47:47;;;;;;;1.80;0.98;;;22.30;57.80;;;;;;4970904;28;87826;-87
2023/10/15 06:50:14;;;;;;;5.18;1.13;;;22.30;57.90;;;;;;4968391;28;89690;-88
2023/10/15 06:52:42;;;;;;;1.88;0.98;;;22.40;57.90;;;;;;4970567;28;88157;-87
2023/10/15 06:55:11;;;;;;;3.45;1.10;;;22.30;57.90;;;;;;4970105;28;87728;-87
2023/10/15 06:57:40;;;;;;;2.05;0.80;;;22.40;58.00;;;;;;4974833;28;89882;-88
2023/10/15 07:00:10;;;;;;;1.70;0.88;;;22.40;57.90;;;;;;4974354;28;91119;-88
2023/10/15 07:02:36;;;;;;;6.90;1.10;;;22.40;57.90;;;;;;4969908;28;90338;-88
2023/10/15 07:05:03;;;;;;;3.15;1.05;;;22.40;57.90;;;;;;4969273;28;88237;-88
2023/10/15 07:07:31;;;;;;;0.95;0.60;;;22.40;57.80;;;;;;4969514;28;87481;-89
2023/10/15 07:10:05;;;;;;;2.63;0.88;;;22.40;57.90;;;;;;4966877;28;90573;-88
2023/10/15 07:12:34;;;;;;;3.55;1.05;;;22.40;57.90;;;;;;4959482;28;88718;-88
2023/10/15 07:14:59;;;;;;;2.38;1.00;;;22.40;57.80;;;;;;4968436;28;87574;-86
2023/10/15 07:17:25;;;;;;;2.53;1.10;;;22.40;57.80;;;;;;4967706;28;89181;-85
2023/10/15 07:19:51;;;;;;;3.70;1.30;;;22.40;55.50;;;;;;4970656;28;87490;-86
2023/10/15 07:22:16;;;;;;;1.45;0.90;;;22.40;55.60;;;;;;4973194;28;88213;-87
2023/10/15 07:24:42;;;;;;;9.88;1.90;;;22.40;57.20;;;;;;4959348;28;88113;-88
2023/10/15 07:27:08;;;;;;;30.50;6.07;;;22.50;56.80;;;;;;4976726;28;87446;-87
2023/10/15 07:29:34;;;;;;;19.38;4.13;;;22.50;56.00;;;;;;4969577;28;87726;-87
2023/10/15 07:32:00;;;;;;;17.55;4.50;;;22.40;56.30;;;;;;4961194;28;88561;-88
2023/10/15 07:34:28;;;;;;;30.10;6.38;;;22.50;56.10;;;;;;4964741;28;87823;-88
2023/10/15 07:36:57;;;;;;;37.30;9.68;;;22.40;55.80;;;;;;4957374;28;87602;-87
2023/10/15 07:39:24;;;;;;;33.20;5.85;;;22.40;54.50;;;;;;4963690;28;90958;-87
2023/10/15 07:41:51;;;;;;;26.15;5.30;;;22.50;55.60;;;;;;4972364;28;91999;-91
2023/10/15 07:44:17;;;;;;;34.33;7.65;;;22.50;56.00;;;;;;4970390;28;87980;-89
2023/10/15 07:46:43;;;;;;;36.80;6.97;;;22.50;54.00;;;;;;4971367;28;87486;-85
2023/10/15 07:49:12;;;;;;;28.83;6.93;;;22.40;54.40;;;;;;4966267;28;88752;-85
2023/10/15 07:51:47;;;;;;;72.53;18.35;;;22.40;54.20;;;;;;4967019;28;88801;-86
2023/10/15 07:54:12;;;;;;;136.73;36.30;;;22.50;53.70;;;;;;4970587;28;87315;-86
2023/10/15 07:56:38;;;;;;;200.57;49.88;;;22.50;54.00;;;;;;4966104;28;87405;-86
2023/10/15 07:59:05;;;;;;;142.45;40.25;;;22.50;54.10;;;;;;4969472;28;88282;-86
2023/10/15 08:01:31;;;;;;;129.93;35.60;;;22.50;54.10;;;;;;4966505;28;90219;-86
2023/10/15 08:03:59;;;;;;;119.35;34.72;;;22.50;54.30;;;;;;4958041;28;87414;-85
2023/10/15 08:06:25;;;;;;;106.22;29.42;;;22.50;52.10;;;;;;4967266;28;90628;-88
2023/10/15 08:08:51;;;;;;;97.30;26.38;;;22.50;50.50;;;;;;4968388;28;87505;-85
2023/10/15 08:11:16;;;;;;;75.82;23.85;;;22.50;50.60;;;;;;4971915;28;87741;-85
2023/10/15 08:13:42;;;;;;;71.15;20.92;;;22.50;49.80;;;;;;4969203;28;88309;-85
2023/10/15 08:16:08;;;;;;;83.30;23.50;;;22.50;49.00;;;;;;4963749;28;87809;-89
2023/10/15 08:18:34;;;;;;;47.28;13.68;;;22.50;50.50;;;;;;4977298;28;87831;-86
2023/10/15 08:20:59;;;;;;;41.58;12.60;;;22.40;48.80;;;;;;4969421;28;87461;-87
2023/10/15 08:23:26;;;;;;;40.28;12.27;;;22.40;48.20;;;;;;4968702;28;87432;-86
2023/10/15 08:25:52;;;;;;;44.33;12.48;;;22.40;48.60;;;;;;4968046;28;87700;-85
2023/10/15 08:28:18;;;;;;;45.90;11.35;;;22.40;48.10;;;;;;4968273;28;87656;-89
2023/10/15 08:30:43;;;;;;;41.45;11.85;;;22.40;48.00;;;;;;4970388;28;89192;-88
2023/10/15 08:33:12;;;;;;;55.45;14.70;;;22.40;48.90;;;;;;4970625;28;87601;-87
2023/10/15 08:35:40;;;;;;;54.50;16.52;;;22.40;50.20;;;;;;4971912;28;90188;-86
2023/10/15 08:38:07;;;;;;;36.70;11.00;;;22.50;50.70;;;;;;4966703;28;88378;-90
2023/10/15 08:40:39;;;;;;;29.60;8.77;;;22.50;49.50;;;;;;4967934;28;88453;-85
2023/10/15 08:43:20;;;;;;;27.13;8.85;;;22.40;47.50;;;;;;4968221;28;88754;-85
2023/10/15 08:45:46;;;;;;;38.65;11.25;;;22.40;48.20;;;;;;4969736;28;87650;-86
2023/10/15 08:48:12;;;;;;;36.25;9.20;;;22.50;49.40;;;;;;4968383;28;87519;-86
2023/10/15 08:50:39;;;;;;;29.85;7.80;;;22.40;48.70;;;;;;4966401;28;88611;-88
2023/10/15 08:53:08;;;;;;;34.15;9.15;;;22.40;49.00;;;;;;4966157;28;87622;-87
2023/10/15 08:55:35;;;;;;;;;;;22.50;50.20;;;;;;4968305;28;86968;-86
2023/10/15 08:58:01;;;;;;;40.28;9.77;;;22.50;50.70;;;;;;4964377;28;87521;-89
2023/10/15 09:00:30;;;;;;;29.08;8.82;;;22.50;50.30;;;;;;4958279;28;90158;-84
2023/10/15 09:02:56;;;;;;;24.05;8.10;;;22.50;50.70;;;;;;4968815;28;88432;-85
2023/10/15 09:05:25;;;;;;;32.17;7.63;;;22.50;50.70;;;;;;4956100;28;91690;-85
2023/10/15 09:07:54;;;;;;;28.00;6.95;;;22.40;50.70;;;;;;4968445;28;88084;-86
2023/10/15 09:10:20;;;;;;;16.88;5.13;;;22.40;50.70;;;;;;4967622;28;89369;-85
2023/10/15 09:12:47;;;;;;;12.20;4.40;;;22.40;49.40;;;;;;4962813;28;87675;-85
2023/10/15 09:15:18;;;;;;;13.93;4.05;;;22.40;48.30;;;;;;4973576;28;86988;-87
2023/10/15 09:17:56;;;;;;;13.27;3.88;;;22.40;49.10;;;;;;4966236;28;88147;-87
2023/10/15 09:20:27;;;;;;;15.73;4.43;;;22.50;48.30;;;;;;4967774;28;87872;-86
2023/10/15 09:23:00;;;;;;;18.75;4.15;;;22.40;48.60;;;;;;4968162;28;87541;-85
2023/10/15 09:25:27;;;;;;;12.95;4.22;;;22.50;48.30;;;;;;4965603;28;89353;-86
2023/10/15 09:27:56;;;;;;;15.90;3.85;;;22.50;48.60;;;;;;4969487;28;88654;-89
2023/10/15 09:30:30;;;;;;;13.68;4.32;;;22.40;48.50;;;;;;4968266;28;88691;-89
2023/10/15 09:32:57;;;;;;;11.80;4.00;;;22.40;48.10;;;;;;4966387;28;87819;-84
2023/10/15 09:35:23;;;;;;;16.63;4.95;;;22.50;49.30;;;;;;4968738;28;87410;-85
2023/10/15 09:37:49;;;;;;;10.48;3.55;;;22.40;49.60;;;;;;4970093;28;87418;-85
2023/10/15 09:40:19;;;;;;;12.82;3.92;;;22.40;48.70;;;;;;4966028;28;87557;-86
2023/10/15 09:42:52;;;;;;;10.68;3.42;;;22.40;49.20;;;;;;4965673;28;87841;-84
2023/10/15 09:45:18;;;;;;;10.05;3.30;;;22.40;47.70;;;;;;4964213;28;87513;-85
2023/10/15 09:47:49;;;;;;;8.35;3.03;;;22.40;47.10;;;;;;4963879;28;87845;-85
2023/10/15 09:50:38;;;;;;;9.40;4.03;;;22.40;46.00;;;;;;4964141;28;88335;-85
2023/10/15 09:53:11;;;;;;;;;;;22.50;48.30;;;;;;4962483;28;88310;-86
2023/10/15 09:55:40;;;;;;;9.32;3.40;;;22.50;49.60;;;;;;4964451;28;87885;-86
2023/10/15 09:58:06;;;;;;;8.90;3.13;;;22.50;49.70;;;;;;4961661;28;90615;-85
2023/10/15 10:00:46;;;;;;;11.15;4.05;;;22.50;50.00;;;;;;4953873;28;88186;-86
2023/10/15 10:03:40;;;;;;;7.28;2.92;;;22.60;50.30;;;;;;4954603;28;87582;-86
2023/10/15 10:06:11;;;;;;;10.77;2.55;;;22.50;50.50;;;;;;4962979;28;92321;-86
2023/10/15 10:09:06;;;;;;;9.43;3.05;;;22.50;50.50;;;;;;4963968;28;91007;-85
2023/10/15 10:11:59;;;;;;;14.15;4.28;;;22.50;50.90;;;;;;4956020;28;90917;-85
2023/10/15 10:15:02;;;;;;;6.85;2.42;;;22.50;51.00;;;;;;4963933;28;89306;-86
2023/10/15 10:17:29;;;;;;;7.88;2.97;;;22.50;51.20;;;;;;4965056;28;87432;-86
2023/10/15 10:19:55;;;;;;;9.40;2.80;;;22.50;51.00;;;;;;4965397;28;88729;-87
2023/10/15 10:22:28;;;;;;;7.78;2.50;;;22.50;51.30;;;;;;4963583;28;91430;-86
2023/10/15 10:24:58;;;;;;;9.02;2.83;;;22.50;51.10;;;;;;4961910;28;87445;-87
2023/10/15 10:27:24;;;;;;;;;;;22.50;51.30;;;;;;4962462;28;89473;-86
2023/10/15 10:29:53;;;;;;;11.85;2.70;;;22.50;51.30;;;;;;4966318;28;92055;-87
2023/10/15 10:32:22;;;;;;;;;;;22.50;51.30;;;;;;4966121;28;88378;-86
2023/10/15 10:35:15;;;;;;;7.85;2.15;;;22.50;49.10;;;;;;4964306;28;87500;-88
2023/10/15 10:38:03;;;;;;;7.45;2.65;;;22.50;49.60;;;;;;4964095;28;89452;-85
2023/10/15 10:41:04;;;;;;;13.48;3.10;;;22.50;51.10;;;;;;4964404;28;87735;-85
2023/10/15 10:43:30;;;;;;;10.00;2.45;;;22.50;51.10;;;;;;4964573;28;90197;-84
2023/10/15 10:46:00;;;;;;;6.32;2.45;;;22.50;51.10;;;;;;4962493;28;88860;-84
2023/10/15 10:48:33;;;;;;;11.85;2.65;;;22.40;51.50;;;;;;4963980;28;87413;-83
2023/10/15 10:51:08;;;;;;;9.85;2.47;;;22.50;51.80;;;;;;4962956;28;91858;-85
2023/10/15 10:53:34;;;;;;;9.63;2.28;;;22.40;52.00;;;;;;4960917;28;90186;-83
2023/10/15 10:56:04;;;;;;;8.38;2.20;;;22.50;51.60;;;;;;4962677;28;88119;-82
2023/10/15 10:58:30;;;;;;;7.47;2.17;;;22.40;51.50;;;;;;4961852;28;88182;-85
2023/10/15 11:00:59;;;;;;;7.07;1.83;;;22.40;51.20;;;;;;4963522;28;89477;-85
2023/10/15 11:03:25;;;;;;;4.68;1.67;;;22.50;50.90;;;;;;4963580;28;89918;-84
2023/10/15 11:05:54;;;;;;;5.00;1.65;;;22.40;51.10;;;;;;4963849;28;87280;-85
2023/10/15 11:08:21;;;;;;;9.48;2.47;;;22.40;52.40;;;;;;4967155;28;87454;-84
2023/10/15 11:10:48;;;;;;;10.65;2.92;;;22.50;52.20;;;;;;4961312;28;89212;-84
2023/10/15 11:13:18;;;;;;;11.88;2.90;;;22.50;52.60;;;;;;4962546;28;89944;-84
2023/10/15 11:15:51;;;;;;;7.90;3.00;;;22.50;53.10;;;;;;4965947;28;87138;-84
2023/10/15 11:18:22;;;;;;;10.82;2.65;;;22.50;53.30;;;;;;4967612;28;87756;-84
2023/10/15 11:20:47;;;;;;;5.72;2.42;;;22.50;51.90;;;;;;4967164;28;87738;-84
2023/10/15 11:23:13;;;;;;;9.25;2.75;;;22.50;52.30;;;;;;4964450;28;89156;-84
2023/10/15 11:25:39;;;;;;;6.43;2.33;;;22.50;52.20;;;;;;4965684;28;87857;-84
2023/10/15 11:28:11;;;;;;;5.10;2.20;;;22.50;52.00;;;;;;4965171;28;86930;-83
2023/10/15 11:30:43;;;;;;;6.38;2.55;;;22.50;51.50;;;;;;4966709;28;88979;-84
2023/10/15 11:33:12;;;;;;;5.10;2.00;;;22.50;51.10;;;;;;4964839;28;87586;-85
2023/10/15 11:35:40;;;;;;;8.10;2.33;;;22.50;51.00;;;;;;4965194;28;88698;-83
2023/10/15 11:38:09;;;;;;;5.22;1.98;;;22.50;50.10;;;;;;4962728;28;89733;-84
2023/10/15 11:40:38;;;;;;;7.68;2.38;;;22.60;51.90;;;;;;4964268;28;88935;-85
2023/10/15 11:43:18;;;;;;;6.13;1.88;;;22.60;51.90;;;;;;4966043;28;87617;-84
2023/10/15 11:45:47;;;;;;;4.72;2.03;;;22.60;51.80;;;;;;4965445;28;88021;-83
2023/10/15 11:48:21;;;;;;;7.25;2.25;;;22.60;51.80;;;;;;4965945;28;88187;-87
2023/10/15 11:50:48;;;;;;;7.35;2.15;;;22.60;51.90;;;;;;4965259;28;88235;-83
2023/10/15 11:53:17;;;;;;;5.70;2.38;;;22.60;51.90;;;;;;4964105;28;88997;-86
2023/10/15 11:55:52;;;;;;;5.60;1.90;;;22.60;52.10;;;;;;4961329;28;87654;-86
2023/10/15 11:58:19;;;;;;;6.35;2.08;;;22.70;51.90;;;;;;4956932;28;87492;-86
2023/10/15 12:00:49;;;;;;;6.05;2.40;;;22.60;51.80;;;;;;4968154;28;89102;-86
2023/10/15 12:03:16;;;;;;;7.50;2.33;;;22.60;51.90;;;;;;4961286;28;89732;-86
2023/10/15 12:05:42;;;;;;;7.70;1.98;;;22.60;51.90;;;;;;4960545;28;87684;-87
2023/10/15 12:08:12;;;;;;;4.43;2.20;;;22.60;52.20;;;;;;4959846;28;87499;-88
2023/10/15 12:10:42;;;;;;;7.28;2.88;;;22.60;52.10;;;;;;4960522;28;87572;-86
2023/10/15 12:13:09;;;;;;;4.60;1.80;;;22.60;52.20;;;;;;4959790;28;88386;-86
2023/10/15 12:15:34;;;;;;;6.40;2.25;;;22.60;52.40;;;;;;4959186;28;88007;-87
2023/10/15 12:18:02;;;;;;;6.35;1.77;;;22.60;52.60;;;;;;4961313;28;87486;-88
2023/10/15 12:20:28;;;;;;;5.43;2.25;;;22.60;52.30;;;;;;4960806;28;90361;-87
2023/10/15 12:22:54;;;;;;;5.65;1.70;;;22.60;52.30;;;;;;4961735;28;87541;-86
2023/10/15 12:25:20;;;;;;;6.38;2.25;;;22.70;52.30;;;;;;4960167;28;88620;-85
2023/10/15 12:27:45;;;;;;;4.28;1.95;;;22.70;52.30;;;;;;4960434;28;87766;-86
2023/10/15 12:30:23;;;;;;;6.00;1.80;;;22.70;52.40;;;;;;4961241;28;88538;-86
2023/10/15 12:32:53;;;;;;;5.13;1.92;;;22.70;52.40;;;;;;4961689;28;87716;-86
2023/10/15 12:35:20;;;;;;;6.30;1.85;;;22.70;52.50;;;;;;4961728;28;87694;-87
2023/10/15 12:38:02;;;;;;;3.88;1.65;;;22.80;52.60;;;;;;4941562;28;88007;-87
2023/10/15 12:40:32;;;;;;;5.13;2.05;;;22.80;52.50;;;;;;4960201;28;87676;-86
2023/10/15 12:42:59;;;;;;;4.05;1.88;;;22.90;52.70;;;;;;4959898;28;89548;-86
2023/10/15 12:45:25;;;;;;;6.18;1.67;;;22.90;52.60;;;;;;4962333;28;87724;-86
2023/10/15 12:47:51;;;;;;;7.82;2.13;;;23.00;52.60;;;;;;4962155;28;87566;-86
2023/10/15 12:50:17;;;;;;;6.47;2.25;;;23.00;52.70;;;;;;4960202;28;88724;-87
2023/10/15 12:52:47;;;;;;;8.93;3.00;;;23.00;52.80;;;;;;4960744;28;88493;-86
2023/10/15 12:55:18;;;;;;;3.65;1.55;;;23.00;52.80;;;;;;4960718;28;87290;-86
2023/10/15 12:57:46;;;;;;;2.53;1.58;;;23.00;52.80;;;;;;4960314;28;87868;-86
2023/10/15 13:00:18;;;;;;;3.75;1.60;;;23.10;53.10;;;;;;4963794;28;87418;-87
2023/10/15 13:02:54;;;;;;;4.78;1.98;;;23.10;52.40;;;;;;4961041;28;91091;-87
2023/10/15 13:05:22;;;;;;;4.43;1.80;;;23.10;52.70;;;;;;4946279;28;88154;-88
2023/10/15 13:07:50;;;;;;;4.10;1.75;;;23.20;52.70;;;;;;4963869;28;87151;-87
2023/10/15 13:10:17;;;;;;;4.30;1.92;;;23.20;52.10;;;;;;4960014;28;88746;-89
2023/10/15 13:12:54;;;;;;;7.15;1.73;;;23.20;53.00;;;;;;4956313;28;89345;-86
2023/10/15 13:15:21;;;;;;;3.67;1.50;;;23.30;52.40;;;;;;4960286;28;88293;-92
2023/10/15 13:17:50;;;;;;;4.70;1.83;;;23.40;53.10;;;;;;4959986;28;87512;-86
2023/10/15 13:20:17;;;;;;;3.00;1.40;;;23.40;52.20;;;;;;4960959;28;88514;-86
2023/10/15 13:22:44;;;;;;;3.95;1.95;;;23.50;52.80;;;;;;4962613;28;87200;-86